Time;durP1;ratioP1;P1;durP2;ratioP2;P2;SDS_P1;SDS_P2;PMS_P1;PMS_P2;Temp;Humidity;BMP_temperature;BMP_pressure;BME280_temperature;BME280_humidity;BME280_pressure;Samples;Min_cycle;Max_cycle;Signal;HPM_P1;HPM_P2
2024/03/09 00:01:11;;;;;;;25.70;14.60;;;8.80;1.00;;;;;;5007779;28;20234;-64
2024/03/09 00:03:40;;;;;;;25.47;14.93;;;8.90;1.00;;;;;;5009186;28;20580;-65
2024/03/09 00:06:12;;;;;;;26.73;15.27;;;8.90;1.00;;;;;;5008530;28;20297;-65
2024/03/09 00:08:43;;;;;;;26.00;15.67;;;8.80;1.00;;;;;;5009963;28;20306;-64
2024/03/09 00:11:11;;;;;;;24.57;14.57;;;8.80;1.00;;;;;;5008967;28;20988;-64
2024/03/09 00:13:40;;;;;;;26.00;14.87;;;8.80;1.00;;;;;;5010018;28;20229;-64
2024/03/09 00:16:09;;;;;;;25.60;14.63;;;8.70;1.00;;;;;;5009558;28;20214;-64
2024/03/09 00:18:39;;;;;;;23.40;14.90;;;8.70;1.00;;;;;;5010350;28;20221;-65
2024/03/09 00:21:14;;;;;;;23.53;14.90;;;8.70;1.00;;;;;;5008176;28;20263;-65
2024/03/09 00:23:43;;;;;;;28.07;15.43;;;8.70;1.00;;;;;;5000084;28;20877;-65
2024/03/09 00:26:12;;;;;;;28.00;14.83;;;8.70;1.00;;;;;;5004116;28;20222;-65
2024/03/09 00:28:40;;;;;;;26.27;15.73;;;8.60;1.00;;;;;;5006157;28;20226;-65
2024/03/09 00:31:11;;;;;;;26.17;15.27;;;8.60;1.00;;;;;;5008352;28;20222;-65
2024/03/09 00:33:42;;;;;;;26.67;15.23;;;8.60;1.00;;;;;;5008416;28;20320;-65
2024/03/09 00:36:11;;;;;;;25.07;15.17;;;8.60;1.00;;;;;;5007724;28;20272;-65
2024/03/09 00:38:45;;;;;;;25.20;14.90;;;8.60;1.00;;;;;;5008220;28;20183;-65
2024/03/09 00:41:13;;;;;;;25.50;15.40;;;8.60;1.00;;;;;;5011562;28;20205;-65
2024/03/09 00:43:44;;;;;;;27.03;15.00;;;8.60;1.00;;;;;;5022225;28;20225;-65
2024/03/09 00:46:13;;;;;;;30.30;15.40;;;8.60;1.00;;;;;;5009113;28;20316;-65
2024/03/09 00:48:43;;;;;;;25.17;15.17;;;8.60;1.00;;;;;;5009963;28;20257;-65
2024/03/09 00:51:12;;;;;;;23.67;14.60;;;8.60;1.00;;;;;;5009442;28;20276;-65
2024/03/09 00:53:45;;;;;;;27.17;15.10;;;8.60;1.00;;;;;;5010230;28;20190;-65
2024/03/09 00:56:15;;;;;;;27.83;15.23;;;8.50;1.00;;;;;;5008698;28;20203;-65
2024/03/09 00:58:45;;;;;;;26.50;15.03;;;8.50;1.00;;;;;;5015238;28;20222;-65
2024/03/09 01:01:13;;;;;;;29.17;15.97;;;8.40;1.00;;;;;;5008343;28;20230;-65
2024/03/09 01:03:42;;;;;;;27.23;15.50;;;8.40;1.00;;;;;;5009268;28;20307;-65
2024/03/09 01:06:11;;;;;;;26.53;15.37;;;8.40;1.00;;;;;;5009520;28;20225;-65
2024/03/09 01:08:40;;;;;;;26.97;15.70;;;8.30;1.00;;;;;;5009130;28;20568;-65
2024/03/09 01:11:10;;;;;;;29.70;16.23;;;8.30;1.00;;;;;;5009285;28;20245;-65
2024/03/09 01:13:41;;;;;;;26.80;15.60;;;8.20;1.00;;;;;;5007026;28;20260;-65
2024/03/09 01:16:12;;;;;;;27.73;16.13;;;8.20;1.00;;;;;;5004242;28;20225;-65
2024/03/09 01:18:40;;;;;;;26.80;15.83;;;8.20;1.00;;;;;;5006900;28;20228;-65
2024/03/09 01:21:09;;;;;;;27.70;16.40;;;8.10;1.00;;;;;;5009639;28;20265;-65
2024/03/09 01:23:37;;;;;;;25.67;15.40;;;8.20;1.00;;;;;;5008726;28;20245;-65
2024/03/09 01:26:09;;;;;;;25.77;14.93;;;8.10;1.00;;;;;;5008373;28;20200;-65
2024/03/09 01:28:39;;;;;;;28.17;15.93;;;8.20;1.00;;;;;;5006435;28;20240;-65
2024/03/09 01:31:10;;;;;;;24.67;15.37;;;8.20;1.00;;;;;;5008898;28;20213;-65
2024/03/09 01:33:38;;;;;;;26.77;15.37;;;8.20;1.00;;;;;;5003529;28;20223;-65
2024/03/09 01:36:08;;;;;;;29.37;16.07;;;8.20;1.00;;;;;;4988802;28;20215;-65
2024/03/09 01:38:40;;;;;;;26.50;16.20;;;8.10;1.00;;;;;;4991750;28;20190;-65
2024/03/09 01:41:08;;;;;;;27.10;16.37;;;8.10;1.00;;;;;;4990986;28;20281;-65
2024/03/09 01:43:37;;;;;;;25.43;15.50;;;8.10;1.00;;;;;;4990208;28;20227;-65
2024/03/09 01:46:12;;;;;;;29.47;15.70;;;8.10;1.00;;;;;;5006117;28;20284;-65
2024/03/09 01:48:42;;;;;;;32.27;16.30;;;8.10;1.00;;;;;;5010071;28;20704;-65
2024/03/09 01:51:10;;;;;;;26.90;15.10;;;8.20;1.00;;;;;;5012033;28;20210;-65
2024/03/09 01:53:42;;;;;;;27.40;15.77;;;8.20;1.00;;;;;;5013555;28;20226;-65
2024/03/09 01:56:12;;;;;;;25.67;15.43;;;8.10;1.00;;;;;;5011885;28;20186;-65
2024/03/09 01:58:42;;;;;;;29.50;15.60;;;8.20;1.00;;;;;;5012754;28;20210;-64
2024/03/09 02:01:23;;;;;;;28.63;15.73;;;8.20;1.00;;;;;;5010571;28;20655;-64
2024/03/09 02:03:53;;;;;;;25.57;14.87;;;8.30;1.00;;;;;;5010152;28;20231;-65
2024/03/09 02:06:23;;;;;;;25.33;15.10;;;8.30;1.00;;;;;;5011309;28;20221;-64
2024/03/09 02:08:53;;;;;;;29.40;15.37;;;8.20;1.00;;;;;;5004666;28;20250;-64
2024/03/09 02:11:21;;;;;;;24.73;15.47;;;8.20;1.00;;;;;;4991045;28;20919;-65
2024/03/09 02:13:51;;;;;;;24.00;15.07;;;8.20;1.00;;;;;;5011367;28;20221;-65
2024/03/09 02:16:21;;;;;;;26.27;15.30;;;8.20;1.00;;;;;;5009605;28;20677;-65
2024/03/09 02:18:51;;;;;;;27.57;15.13;;;8.20;1.00;;;;;;5008107;28;20241;-65
2024/03/09 02:21:19;;;;;;;26.60;14.97;;;8.20;1.00;;;;;;5007955;28;20250;-65
2024/03/09 02:23:48;;;;;;;26.93;14.73;;;8.20;1.00;;;;;;4988773;28;20230;-65
2024/03/09 02:26:18;;;;;;;28.60;15.63;;;8.20;1.00;;;;;;4987748;28;20199;-65
2024/03/09 02:28:54;;;;;;;25.47;14.30;;;8.20;1.00;;;;;;4989932;28;20226;-65
2024/03/09 02:31:23;;;;;;;26.37;15.23;;;8.20;1.00;;;;;;4989787;28;20222;-65
2024/03/09 02:33:53;;;;;;;27.90;16.07;;;8.20;1.00;;;;;;4989636;28;20238;-65
2024/03/09 02:36:25;;;;;;;27.60;16.30;;;8.20;1.00;;;;;;4987017;28;20230;-65
2024/03/09 02:38:54;;;;;;;25.57;15.17;;;8.10;1.00;;;;;;4990877;28;20222;-65
2024/03/09 02:41:25;;;;;;;28.53;15.87;;;8.20;1.00;;;;;;4988952;28;20199;-65
2024/03/09 02:43:54;;;;;;;28.80;16.03;;;8.10;1.00;;;;;;5007099;28;20676;-65
2024/03/09 02:46:25;;;;;;;26.40;15.07;;;8.10;1.00;;;;;;5010771;28;20313;-65
2024/03/09 02:48:54;;;;;;;26.13;15.50;;;8.00;1.00;;;;;;5008956;28;20222;-65
2024/03/09 02:51:25;;;;;;;28.90;15.10;;;8.00;1.00;;;;;;5009270;28;20312;-65
2024/03/09 02:53:54;;;;;;;24.80;15.30;;;8.00;1.00;;;;;;5008955;28;20245;-65
2024/03/09 02:56:23;;;;;;;31.17;16.47;;;8.00;1.00;;;;;;5009854;28;20202;-65
2024/03/09 02:58:53;;;;;;;26.67;16.23;;;7.90;7.20;;;;;;5011072;28;20668;-65
2024/03/09 03:01:22;;;;;;;28.80;15.97;;;7.80;13.60;;;;;;5008869;28;20759;-65
2024/03/09 03:03:55;;;;;;;28.87;15.57;;;7.80;10.70;;;;;;5009956;28;20217;-65
2024/03/09 03:06:23;;;;;;;27.97;15.93;;;7.70;18.50;;;;;;5008443;28;20225;-65
2024/03/09 03:08:55;;;;;;;26.47;15.20;;;7.70;18.80;;;;;;5007481;28;20225;-64
2024/03/09 03:11:25;;;;;;;30.63;16.03;;;7.70;23.00;;;;;;5006265;28;20234;-63
2024/03/09 03:13:55;;;;;;;29.73;15.70;;;7.60;26.20;;;;;;5010284;28;20194;-65
2024/03/09 03:16:29;;;;;;;29.50;15.63;;;7.60;29.60;;;;;;5006604;28;20222;-65
2024/03/09 03:18:58;;;;;;;31.93;16.40;;;7.50;35.30;;;;;;5008371;28;20230;-65
2024/03/09 03:21:26;;;;;;;31.63;16.23;;;7.50;36.40;;;;;;5007642;28;20230;-65
2024/03/09 03:23:55;;;;;;;33.10;16.63;;;7.50;37.90;;;;;;5006786;28;20229;-65
2024/03/09 03:26:24;;;;;;;26.70;15.87;;;7.40;41.60;;;;;;5008334;28;20194;-64
2024/03/09 03:28:54;;;;;;;30.10;15.63;;;7.40;45.90;;;;;;5009870;28;20883;-65
2024/03/09 03:31:24;;;;;;;26.07;15.30;;;7.40;48.20;;;;;;5008329;28;20235;-65
2024/03/09 03:33:53;;;;;;;29.67;15.97;;;7.40;49.10;;;;;;5008948;28;20549;-65
2024/03/09 03:36:23;;;;;;;27.97;15.47;;;7.40;50.10;;;;;;5025132;28;20224;-65
2024/03/09 03:38:51;;;;;;;28.57;16.10;;;7.40;51.20;;;;;;5009565;28;20225;-65
2024/03/09 03:41:22;;;;;;;29.10;16.27;;;7.30;55.60;;;;;;5011026;28;20229;-65
2024/03/09 03:43:52;;;;;;;27.43;15.97;;;7.30;55.00;;;;;;5010415;28;20546;-65
2024/03/09 03:46:22;;;;;;;28.50;15.90;;;7.20;59.40;;;;;;5010000;28;20593;-65
2024/03/09 03:48:51;;;;;;;27.77;15.53;;;7.20;59.20;;;;;;5012073;28;20232;-65
2024/03/09 03:51:19;;;;;;;28.80;15.90;;;7.10;61.60;;;;;;5008553;28;20320;-65
2024/03/09 03:53:47;;;;;;;32.33;16.13;;;7.00;71.20;;;;;;5010420;28;20598;-65
2024/03/09 03:56:16;;;;;;;29.67;16.63;;;7.00;75.20;;;;;;5009890;28;20213;-65
2024/03/09 03:58:45;;;;;;;29.23;15.37;;;6.90;81.50;;;;;;5007653;28;20631;-65
2024/03/09 04:01:14;;;;;;;29.77;15.67;;;6.80;83.60;;;;;;5009211;28;20253;-65
2024/03/09 04:03:44;;;;;;;31.47;16.87;;;6.80;89.10;;;;;;5006515;28;20226;-65
2024/03/09 04:06:12;;;;;;;29.57;15.77;;;6.70;87.80;;;;;;5009447;28;20550;-65
2024/03/09 04:08:42;;;;;;;29.07;16.03;;;6.70;87.00;;;;;;5009778;28;20194;-65
2024/03/09 04:11:11;;;;;;;30.17;16.47;;;6.60;88.60;;;;;;5009321;28;20537;-65
2024/03/09 04:13:42;;;;;;;31.13;16.77;;;6.60;91.60;;;;;;5008684;28;20222;-65
2024/03/09 04:16:11;;;;;;;27.03;15.33;;;6.50;91.90;;;;;;5008770;28;20320;-65
2024/03/09 04:18:39;;;;;;;32.27;16.20;;;6.40;94.30;;;;;;5006496;28;20221;-65
2024/03/09 04:21:12;;;;;;;29.13;15.97;;;6.30;97.30;;;;;;5008662;28;20329;-65
2024/03/09 04:23:43;;;;;;;30.37;16.30;;;6.30;99.90;;;;;;5006776;28;20312;-65
2024/03/09 04:26:14;;;;;;;32.33;16.27;;;6.20;99.90;;;;;;5010528;28;20194;-65
2024/03/09 04:28:43;;;;;;;28.50;16.23;;;6.20;99.90;;;;;;5008840;28;20218;-65
2024/03/09 04:31:11;;;;;;;34.80;16.90;;;6.10;99.90;;;;;;5007970;28;20210;-65
2024/03/09 04:33:40;;;;;;;32.47;17.13;;;6.10;99.90;;;;;;5009756;28;20213;-65
2024/03/09 04:36:11;;;;;;;32.57;17.27;;;6.10;99.90;;;;;;5007641;28;20218;-65
2024/03/09 04:38:39;;;;;;;32.83;16.63;;;6.00;99.90;;;;;;5008979;28;20277;-65
2024/03/09 04:41:09;;;;;;;32.37;16.90;;;6.00;99.90;;;;;;5011060;28;20190;-65
2024/03/09 04:43:38;;;;;;;31.53;16.20;;;5.90;99.90;;;;;;5007979;28;20218;-65
2024/03/09 04:46:07;;;;;;;28.30;15.70;;;5.90;99.90;;;;;;5008573;28;20210;-65
2024/03/09 04:48:36;;;;;;;32.33;17.30;;;5.80;99.90;;;;;;5007451;28;20276;-65
2024/03/09 04:51:08;;;;;;;37.73;17.07;;;5.80;99.90;;;;;;5007677;28;20234;-65
2024/03/09 04:53:38;;;;;;;30.73;15.93;;;5.80;99.90;;;;;;5008116;28;20197;-65
2024/03/09 04:56:06;;;;;;;34.10;17.60;;;5.80;99.90;;;;;;5010651;28;20202;-65
2024/03/09 04:58:35;;;;;;;30.23;16.93;;;5.80;99.90;;;;;;5009422;28;20225;-65
2024/03/09 05:01:04;;;;;;;33.37;17.13;;;5.80;99.90;;;;;;5007795;28;20222;-65
2024/03/09 05:03:34;;;;;;;34.40;17.83;;;5.80;99.90;;;;;;5001182;28;20774;-65
2024/03/09 05:06:02;;;;;;;35.77;17.57;;;5.70;99.90;;;;;;5004641;28;20222;-65
2024/03/09 05:08:30;;;;;;;32.50;16.47;;;5.70;99.90;;;;;;5006765;28;20667;-65
2024/03/09 05:11:00;;;;;;;34.77;17.27;;;5.70;99.90;;;;;;5008681;28;20827;-65
2024/03/09 05:13:28;;;;;;;33.53;17.23;;;5.60;99.90;;;;;;5012193;28;20210;-65
2024/03/09 05:15:57;;;;;;;32.73;18.17;;;5.50;99.90;;;;;;5012907;28;20252;-65
2024/03/09 05:18:30;;;;;;;37.27;19.07;;;5.50;99.90;;;;;;5008973;28;20236;-64
2024/03/09 05:20:58;;;;;;;37.73;18.23;;;5.40;99.90;;;;;;5013352;28;20275;-65
2024/03/09 05:23:26;;;;;;;37.20;18.63;;;5.30;99.90;;;;;;5011597;28;20221;-65
2024/03/09 05:25:55;;;;;;;37.33;19.50;;;5.30;99.90;;;;;;5012218;28;20202;-64
2024/03/09 05:28:25;;;;;;;37.50;18.50;;;5.30;99.90;;;;;;5011890;28;20218;-65
2024/03/09 05:30:54;;;;;;;39.20;19.03;;;5.20;99.90;;;;;;5012483;28;20224;-65
2024/03/09 05:33:22;;;;;;;38.53;19.70;;;5.10;99.90;;;;;;5010876;28;20222;-65
2024/03/09 05:35:50;;;;;;;34.83;18.30;;;5.10;99.90;;;;;;5012647;28;20308;-65
2024/03/09 05:38:20;;;;;;;35.20;18.17;;;5.00;99.90;;;;;;5006987;28;20198;-65
2024/03/09 05:40:49;;;;;;;38.03;19.67;;;4.90;99.90;;;;;;5012806;28;20217;-65
2024/03/09 05:43:17;;;;;;;39.87;18.97;;;4.90;99.90;;;;;;5012568;28;20222;-65
2024/03/09 05:45:47;;;;;;;37.33;18.80;;;4.80;99.90;;;;;;5011708;28;20233;-65
2024/03/09 05:48:17;;;;;;;40.93;19.37;;;4.80;99.90;;;;;;5011162;28;20313;-65
2024/03/09 05:50:45;;;;;;;39.43;20.27;;;4.80;99.90;;;;;;5009775;28;20233;-65
2024/03/09 05:53:13;;;;;;;37.07;19.27;;;4.80;99.90;;;;;;5008642;28;20209;-65
2024/03/09 05:55:43;;;;;;;44.20;20.20;;;4.70;99.90;;;;;;5008814;28;20220;-65
2024/03/09 05:58:12;;;;;;;40.40;19.83;;;4.70;99.90;;;;;;5010332;28;20270;-65
2024/03/09 06:00:41;;;;;;;38.17;19.60;;;4.70;99.90;;;;;;5013320;28;20301;-65
2024/03/09 06:03:12;;;;;;;45.93;20.70;;;4.60;99.90;;;;;;5009493;28;20217;-65
2024/03/09 06:05:42;;;;;;;40.00;19.00;;;4.60;99.90;;;;;;5011490;28;20294;-66
2024/03/09 06:08:10;;;;;;;42.17;20.23;;;4.60;99.90;;;;;;5010335;28;20194;-66
2024/03/09 06:10:39;;;;;;;44.53;20.30;;;4.50;99.90;;;;;;5010057;28;20237;-66
2024/03/09 06:13:18;;;;;;;41.97;20.63;;;4.50;99.90;;;;;;5010903;28;20218;-66
2024/03/09 06:15:47;;;;;;;42.07;20.90;;;4.40;99.90;;;;;;5011120;28;20222;-66
2024/03/09 06:18:22;;;;;;;40.63;18.70;;;4.40;99.90;;;;;;5009948;28;20225;-66
2024/03/09 06:20:51;;;;;;;37.87;18.93;;;4.40;99.90;;;;;;5007273;28;20244;-66
2024/03/09 06:23:19;;;;;;;40.70;19.50;;;4.40;99.90;;;;;;5009656;28;20230;-66
2024/03/09 06:25:48;;;;;;;39.93;19.60;;;4.40;99.90;;;;;;5010415;28;20269;-66
2024/03/09 06:28:16;;;;;;;41.13;19.97;;;4.40;99.90;;;;;;5011510;28;20230;-66
2024/03/09 06:30:45;;;;;;;38.70;18.97;;;4.50;99.90;;;;;;5008837;28;20214;-66
2024/03/09 06:33:14;;;;;;;34.83;16.57;;;4.60;99.90;;;;;;5010783;28;20234;-66
2024/03/09 06:35:44;;;;;;;35.57;18.10;;;4.70;99.90;;;;;;5004343;28;20695;-66
2024/03/09 06:38:14;;;;;;;34.23;17.10;;;4.70;99.90;;;;;;5011528;28;20221;-66
2024/03/09 06:40:45;;;;;;;38.43;18.03;;;4.80;99.90;;;;;;5014514;28;20318;-65
2024/03/09 06:43:16;;;;;;;32.93;16.53;;;4.80;99.90;;;;;;5008696;28;20232;-66
2024/03/09 06:45:46;;;;;;;31.80;16.27;;;5.00;99.90;;;;;;5008541;28;20233;-66
2024/03/09 06:48:15;;;;;;;34.33;16.87;;;5.10;99.90;;;;;;5009174;28;20232;-66
2024/03/09 06:50:46;;;;;;;34.10;16.83;;;5.20;99.90;;;;;;5010067;28;20315;-66
2024/03/09 06:53:15;;;;;;;31.30;16.77;;;5.50;99.90;;;;;;5008512;28;20692;-66
2024/03/09 06:55:44;;;;;;;30.13;15.77;;;5.60;99.90;;;;;;5009212;28;20254;-66
2024/03/09 06:58:12;;;;;;;30.63;15.77;;;6.00;99.90;;;;;;5010252;28;20245;-66
2024/03/09 07:00:40;;;;;;;29.67;15.80;;;6.20;99.90;;;;;;5011458;28;20224;-66
2024/03/09 07:03:10;;;;;;;26.47;15.23;;;6.40;99.90;;;;;;5001473;28;20222;-66
2024/03/09 07:05:38;;;;;;;30.53;15.67;;;6.50;99.90;;;;;;5009774;28;20190;-66
2024/03/09 07:08:15;;;;;;;28.27;14.67;;;6.60;99.90;;;;;;5007579;28;20186;-66
2024/03/09 07:10:44;;;;;;;28.37;15.10;;;6.70;99.90;;;;;;5009354;28;20225;-66
2024/03/09 07:13:19;;;;;;;27.30;14.73;;;6.80;99.90;;;;;;5006909;28;20218;-65
2024/03/09 07:15:49;;;;;;;30.50;16.07;;;6.90;99.90;;;;;;5014983;28;20221;-65
2024/03/09 07:18:17;;;;;;;26.23;14.40;;;6.90;99.90;;;;;;5020831;28;20243;-65
2024/03/09 07:20:45;;;;;;;25.27;14.17;;;7.00;99.90;;;;;;5003248;28;20356;-65
2024/03/09 07:23:15;;;;;;;29.03;14.40;;;7.00;99.90;;;;;;5021039;28;20222;-65
2024/03/09 07:25:44;;;;;;;27.80;14.40;;;7.20;99.90;;;;;;5005280;28;20328;-65
2024/03/09 07:28:14;;;;;;;23.23;13.57;;;7.20;99.90;;;;;;5009345;28;20214;-66
2024/03/09 07:30:43;;;;;;;27.30;14.27;;;7.30;99.90;;;;;;5007378;28;20217;-66
2024/03/09 07:33:11;;;;;;;23.30;13.23;;;7.60;99.90;;;;;;5008262;28;20253;-66
2024/03/09 07:35:40;;;;;;;23.20;13.67;;;7.90;99.90;;;;;;5005778;28;20190;-66
2024/03/09 07:38:09;;;;;;;24.37;13.13;;;8.40;99.90;;;;;;5025020;28;20244;-65
2024/03/09 07:40:41;;;;;;;23.60;12.53;;;9.00;91.00;;;;;;5024722;28;20221;-66
2024/03/09 07:43:13;;;;;;;24.43;13.13;;;9.30;67.40;;;;;;5010106;28;20228;-65
2024/03/09 07:45:41;;;;;;;22.17;13.27;;;9.60;25.00;;;;;;5007688;28;20233;-66
2024/03/09 07:48:11;;;;;;;21.50;12.77;;;9.70;1.00;;;;;;5007748;28;20573;-66
2024/03/09 07:50:39;;;;;;;21.27;11.80;;;9.40;4.10;;;;;;5007332;28;20198;-65
2024/03/09 07:53:08;;;;;;;20.77;12.57;;;9.70;2.60;;;;;;5006144;28;20206;-66
2024/03/09 07:55:38;;;;;;;20.20;12.33;;;10.30;1.00;;;;;;5010344;28;20221;-66
2024/03/09 07:58:06;;;;;;;21.00;12.70;;;10.90;1.00;;;;;;5007624;28;20308;-66
2024/03/09 08:00:49;;;;;;;20.30;11.97;;;11.20;1.00;;;;;;5010680;28;20217;-65
2024/03/09 08:03:20;;;;;;;18.43;11.53;;;11.50;1.00;;;;;;5006500;28;20233;-65
2024/03/09 08:05:49;;;;;;;16.53;10.97;;;11.90;1.00;;;;;;5006269;28;20276;-66
2024/03/09 08:08:17;;;;;;;16.67;11.03;;;12.20;1.00;;;;;;5009050;28;20186;-66
2024/03/09 08:10:52;;;;;;;17.90;11.27;;;12.30;1.00;;;;;;5010160;28;20237;-66
2024/03/09 08:13:22;;;;;;;17.80;11.23;;;12.30;1.00;;;;;;5019885;28;20281;-65
2024/03/09 08:15:56;;;;;;;17.53;10.93;;;12.60;1.00;;;;;;5008394;28;20217;-66
2024/03/09 08:18:24;;;;;;;16.43;10.93;;;13.00;1.00;;;;;;5008160;28;20225;-65
2024/03/09 08:20:53;;;;;;;20.40;10.37;;;13.30;1.00;;;;;;5007355;28;20226;-66
2024/03/09 08:23:23;;;;;;;17.10;10.30;;;13.40;99.90;;;;;;5008908;28;20225;-66
2024/03/09 08:25:53;;;;;;;16.03;10.00;;;12.60;1.00;;;;;;5010961;28;20213;-66
2024/03/09 08:28:22;;;;;;;17.80;10.63;;;11.90;1.00;;;;;;5008757;28;20218;-66
2024/03/09 08:30:51;;;;;;;15.97;10.10;;;11.70;1.00;;;;;;5008645;28;20221;-66
2024/03/09 08:33:24;;;;;;;16.80;10.40;;;12.00;1.00;;;;;;5009458;28;20252;-66
2024/03/09 08:35:55;;;;;;;13.30;9.23;;;12.60;1.00;;;;;;5021001;28;20225;-65
2024/03/09 08:38:24;;;;;;;15.47;8.60;;;13.10;1.00;;;;;;5009442;28;20552;-64
2024/03/09 08:40:55;;;;;;;14.33;9.90;;;13.40;1.00;;;;;;5010578;28;20252;-66
2024/03/09 08:43:25;;;;;;;15.77;9.50;;;13.90;1.00;;;;;;5010184;28;20257;-66
2024/03/09 08:45:53;;;;;;;14.30;9.40;;;13.80;1.00;;;;;;5013746;28;20217;-65
2024/03/09 08:48:22;;;;;;;14.07;9.00;;;13.50;1.00;;;;;;5012062;28;20229;-65
2024/03/09 08:50:50;;;;;;;13.77;9.93;;;13.80;1.00;;;;;;5009097;28;20295;-65
2024/03/09 08:53:19;;;;;;;12.57;8.87;;;13.90;1.00;;;;;;5027334;28;20221;-66
2024/03/09 08:55:48;;;;;;;13.90;9.00;;;14.00;1.00;;;;;;5011025;28;20218;-66
2024/03/09 08:58:18;;;;;;;13.63;9.03;;;14.20;1.00;;;;;;5012934;28;20432;-65
2024/03/09 09:00:46;;;;;;;11.40;8.27;;;14.30;1.00;;;;;;5009924;28;20224;-66
2024/03/09 09:03:17;;;;;;;9.97;7.97;;;14.50;1.00;;;;;;5006965;28;20236;-66
2024/03/09 09:05:46;;;;;;;13.40;7.70;;;14.50;1.00;;;;;;5008176;28;20288;-66
2024/03/09 09:08:24;;;;;;;11.73;7.77;;;14.50;1.00;;;;;;5011807;28;20205;-66
2024/03/09 09:10:54;;;;;;;13.43;7.90;;;14.70;1.00;;;;;;5011473;28;20238;-66
2024/03/09 09:13:24;;;;;;;11.67;7.47;;;15.10;1.00;;;;;;5011288;28;20255;-65
2024/03/09 09:15:53;;;;;;;10.63;6.90;;;14.80;1.00;;;;;;5006698;28;20276;-65
2024/03/09 09:18:23;;;;;;;10.70;7.27;;;14.70;1.00;;;;;;5009193;28;20284;-66
2024/03/09 09:20:52;;;;;;;8.47;6.80;;;14.90;1.00;;;;;;5009007;28;20226;-64
2024/03/09 09:23:21;;;;;;;9.27;6.70;;;14.70;1.00;;;;;;5005984;28;20233;-65
2024/03/09 09:25:51;;;;;;;10.07;6.67;;;14.70;1.00;;;;;;5006830;28;20234;-66
2024/03/09 09:28:20;;;;;;;7.67;6.30;;;14.80;1.00;;;;;;5008728;28;20790;-65
2024/03/09 09:30:50;;;;;;;9.97;6.97;;;14.30;1.00;;;;;;5009166;28;20221;-65
2024/03/09 09:33:19;;;;;;;7.03;6.27;;;13.90;1.00;;;;;;5008499;28;20265;-65
2024/03/09 09:35:47;;;;;;;11.73;6.70;;;13.90;1.00;;;;;;5006469;28;20232;-64
2024/03/09 09:38:17;;;;;;;8.87;7.07;;;13.70;1.00;;;;;;5012184;28;20285;-65
2024/03/09 09:40:49;;;;;;;9.27;6.60;;;13.60;1.00;;;;;;5010260;28;20213;-65
2024/03/09 09:43:19;;;;;;;8.57;7.10;;;13.80;1.00;;;;;;5005675;28;20320;-65
2024/03/09 09:45:51;;;;;;;7.97;6.23;;;13.80;1.00;;;;;;5006487;28;20246;-65
2024/03/09 09:48:21;;;;;;;9.63;6.70;;;13.60;1.00;;;;;;5008235;28;20634;-65
2024/03/09 09:50:50;;;;;;;10.33;6.70;;;13.30;1.00;;;;;;5008373;28;20240;-64
2024/03/09 09:53:21;;;;;;;10.23;6.57;;;13.40;1.00;;;;;;5010778;28;20296;-65
2024/03/09 09:55:50;;;;;;;10.23;6.33;;;14.20;1.00;;;;;;5008947;28;20765;-65
2024/03/09 09:58:18;;;;;;;8.77;6.40;;;14.70;1.00;;;;;;5007724;28;20218;-65
2024/03/09 10:00:48;;;;;;;9.33;6.40;;;14.80;1.00;;;;;;5010216;28;20218;-65
2024/03/09 10:03:18;;;;;;;7.93;5.70;;;14.60;1.00;;;;;;5006809;28;20221;-61
2024/03/09 10:05:47;;;;;;;7.30;5.90;;;14.10;1.00;;;;;;5004498;28;20589;-64
2024/03/09 10:08:16;;;;;;;7.97;5.40;;;14.10;1.00;;;;;;5006776;28;20637;-64
2024/03/09 10:10:47;;;;;;;6.50;5.63;;;14.30;1.00;;;;;;5009897;28;20729;-65
2024/03/09 10:13:17;;;;;;;8.43;5.87;;;14.40;1.00;;;;;;5009011;28;20788;-65
2024/03/09 10:15:48;;;;;;;6.37;5.33;;;14.60;1.00;;;;;;5006184;28;20219;-65
2024/03/09 10:18:19;;;;;;;9.03;5.20;;;14.70;1.00;;;;;;5007153;28;20230;-64
2024/03/09 10:20:49;;;;;;;8.03;5.40;;;14.80;1.00;;;;;;5009382;28;20257;-65
2024/03/09 10:23:19;;;;;;;6.57;5.30;;;15.20;1.00;;;;;;5008137;28;20233;-65
2024/03/09 10:25:48;;;;;;;5.77;5.20;;;15.80;1.00;;;;;;5008945;28;20291;-65
2024/03/09 10:28:18;;;;;;;5.47;4.97;;;16.40;99.90;;;;;;5008473;28;20214;-65
2024/03/09 10:30:46;;;;;;;6.37;5.63;;;16.50;99.90;;;;;;5006328;28;20218;-65
2024/03/09 10:33:16;;;;;;;6.30;5.17;;;16.10;99.90;;;;;;5009089;28;20237;-65
2024/03/09 10:35:48;;;;;;;7.77;5.53;;;15.90;99.90;;;;;;5008805;28;20232;-64
2024/03/09 10:38:19;;;;;;;5.43;4.93;;;16.10;99.90;;;;;;5008055;28;20193;-65
2024/03/09 10:40:49;;;;;;;9.37;5.87;;;15.80;99.90;;;;;;5007808;28;20242;-64
2024/03/09 10:43:20;;;;;;;8.10;5.40;;;15.60;99.90;;;;;;5006670;28;20629;-64
2024/03/09 10:45:53;;;;;;;7.60;5.53;;;15.70;99.90;;;;;;5006378;28;20685;-65
2024/03/09 10:48:24;;;;;;;6.60;5.10;;;15.90;99.90;;;;;;5006841;28;20231;-65
2024/03/09 10:51:07;;;;;;;6.07;5.50;;;16.40;1.00;;;;;;5008212;28;20584;-65
2024/03/09 10:53:46;;;;;;;5.60;5.10;;;16.60;1.00;;;;;;5006251;28;20227;-65
2024/03/09 10:56:21;;;;;;;7.27;4.60;;;16.90;1.00;;;;;;5008992;28;20308;-65
2024/03/09 10:58:50;;;;;;;5.00;4.60;;;16.90;1.00;;;;;;4980350;28;20276;-66
2024/03/09 11:01:22;;;;;;;8.00;5.13;;;16.90;9.40;;;;;;5001251;28;20589;-66
2024/03/09 11:03:52;;;;;;;5.87;4.83;;;17.20;1.00;;;;;;4999644;28;20279;-64
2024/03/09 11:06:22;;;;;;;5.07;4.60;;;17.10;1.00;;;;;;5003407;28;20228;-65
2024/03/09 11:08:53;;;;;;;5.20;4.70;;;17.00;1.00;;;;;;5005977;28;20230;-65
2024/03/09 11:11:24;;;;;;;4.90;4.50;;;17.20;1.00;;;;;;5006239;28;20320;-66
2024/03/09 11:13:53;;;;;;;5.43;4.20;;;17.20;1.00;;;;;;5003658;28;20617;-65
2024/03/09 11:16:24;;;;;;;8.73;4.53;;;17.10;1.00;;;;;;5005516;28;20221;-65
2024/03/09 11:18:55;;;;;;;4.90;4.43;;;17.00;1.00;;;;;;5010247;28;20226;-65
2024/03/09 11:21:29;;;;;;;4.37;3.97;;;17.10;1.00;;;;;;5008781;28;20225;-66
2024/03/09 11:24:00;;;;;;;4.03;3.73;;;17.30;1.00;;;;;;5006011;28;20280;-65
2024/03/09 11:26:32;;;;;;;4.13;3.80;;;17.80;1.00;;;;;;5008050;28;21447;-66
2024/03/09 11:29:02;;;;;;;5.60;3.80;;;17.90;1.00;;;;;;5006640;28;20735;-66
2024/03/09 11:31:30;;;;;;;4.30;3.87;;;17.70;1.00;;;;;;5005267;28;20230;-65
2024/03/09 11:34:17;;;;;;;3.90;3.60;;;17.40;99.90;;;;;;5007779;28;20247;-65
2024/03/09 11:36:51;;;;;;;4.53;3.57;;;16.40;99.90;;;;;;4998734;28;20680;-64
2024/03/09 11:39:28;;;;;;;3.53;3.30;;;15.80;1.00;;;;;;5005478;28;20761;-64
2024/03/09 11:42:00;;;;;;;4.53;3.87;;;15.40;1.00;;;;;;5002696;28;20741;-64
2024/03/09 11:44:30;;;;;;;6.10;4.27;;;15.70;1.00;;;;;;5002827;28;20710;-64
2024/03/09 11:47:00;;;;;;;3.70;3.43;;;16.30;1.00;;;;;;4999525;28;20919;-64
2024/03/09 11:49:29;;;;;;;4.57;3.93;;;16.50;99.90;;;;;;5004038;28;20634;-65
2024/03/09 11:51:59;;;;;;;4.63;4.23;;;16.60;1.00;;;;;;5004851;28;20343;-64
2024/03/09 11:54:28;;;;;;;6.50;4.10;;;17.20;96.90;;;;;;5004654;28;20226;-64
2024/03/09 11:56:57;;;;;;;4.23;3.93;;;17.50;1.00;;;;;;5001971;28;20229;-64
2024/03/09 11:59:25;;;;;;;4.60;4.00;;;18.40;1.00;;;;;;5006751;28;20292;-64
2024/03/09 12:01:59;;;;;;;4.17;3.87;;;19.10;99.90;;;;;;5000280;28;20194;-64
2024/03/09 12:04:29;;;;;;;4.50;4.20;;;18.60;1.00;;;;;;5010119;28;20689;-63
2024/03/09 12:06:59;;;;;;;4.20;3.90;;;17.90;1.00;;;;;;5004623;28;20267;-64
2024/03/09 12:09:29;;;;;;;5.83;4.60;;;17.10;1.00;;;;;;5004840;28;20232;-64
2024/03/09 12:11:57;;;;;;;5.23;3.90;;;16.60;1.00;;;;;;5004106;28;20617;-64
2024/03/09 12:14:26;;;;;;;6.47;3.93;;;16.60;1.00;;;;;;5006673;28;20900;-63
2024/03/09 12:16:54;;;;;;;4.97;4.53;;;16.60;1.00;;;;;;5003515;28;20654;-63
2024/03/09 12:19:23;;;;;;;4.70;4.30;;;16.10;1.00;;;;;;5008131;28;20621;-63
2024/03/09 12:21:52;;;;;;;6.47;4.70;;;16.00;1.00;;;;;;5008386;28;20245;-64
2024/03/09 12:24:23;;;;;;;4.87;4.30;;;15.80;99.90;;;;;;5006592;28;20219;-64
2024/03/09 12:26:51;;;;;;;5.93;4.33;;;15.80;1.00;;;;;;5004646;28;20224;-64
2024/03/09 12:29:20;;;;;;;6.10;4.90;;;15.90;1.00;;;;;;5021956;28;20297;-64
2024/03/09 12:31:50;;;;;;;4.80;4.37;;;15.60;99.90;;;;;;5003730;28;20299;-64
2024/03/09 12:34:20;;;;;;;5.20;4.70;;;15.60;1.00;;;;;;5008225;28;20312;-63
2024/03/09 12:36:52;;;;;;;6.37;4.77;;;15.80;1.00;;;;;;5006911;28;20231;-64
2024/03/09 12:39:22;;;;;;;4.80;4.40;;;16.30;1.00;;;;;;5008113;28;20222;-64
2024/03/09 12:41:51;;;;;;;8.30;4.70;;;16.50;99.90;;;;;;5004487;28;20235;-64
2024/03/09 12:44:21;;;;;;;8.10;4.90;;;16.80;99.90;;;;;;5006953;28;20265;-64
2024/03/09 12:46:50;;;;;;;5.83;4.67;;;16.90;99.90;;;;;;5008308;28;20215;-64
2024/03/09 12:49:20;;;;;;;4.93;4.40;;;16.40;1.00;;;;;;5004917;28;20855;-63
2024/03/09 12:51:49;;;;;;;6.67;4.27;;;15.90;97.10;;;;;;5009263;28;20670;-64
2024/03/09 12:54:23;;;;;;;6.37;4.83;;;15.80;1.00;;;;;;5009104;28;20284;-64
2024/03/09 12:56:54;;;;;;;5.27;4.80;;;15.90;99.90;;;;;;5008186;28;20309;-64
2024/03/09 12:59:25;;;;;;;6.40;4.87;;;15.80;99.90;;;;;;5008505;28;20921;-64